ADDS METAR Data INFO
IDs: Format: Raw Decoded Include TAF

Data at: 1508 UTC 23 Oct 2017

KIXD 231453Z 27010KT 10SM CLR 12/06 A2995 RMK AO2 SLP140 T01220061 53003
KIXD 231353Z 21010KT 10SM CLR 10/05 A2995 RMK AO2 SLP140 T01000050
KIXD 231253Z 17004KT 10SM CLR 06/04 A2993 RMK AO2 SLP136 T00610039
KIXD 231153Z 18006KT 10SM CLR 06/04 A2994 RMK AO2 SLP137 T00560039 10072 20050 56024
KIXD 231053Z AUTO 19004KT 10SM CLR 06/04 A2995 RMK AO2 SLP141 T00610039
KIXD 230953Z AUTO 16005KT 10SM CLR 06/04 A2998 RMK AO2 SLP152 T00560039
KIXD 230853Z AUTO 00000KT 10SM CLR 07/04 A3001 RMK AO2 SLP160 T00720044 56012
KIXD 230753Z AUTO 18003KT 10SM CLR 06/04 A3002 RMK AO2 SLP163 T00610044
KIXD 230653Z AUTO 17004KT 10SM CLR 06/04 A3003 RMK AO2 SLP169 T00610044
KIXD 230553Z AUTO 16006KT 10SM CLR 07/04 A3005 RMK AO2 SLP173 T00670044 10139 20061 401830061 58011
KIXD 230453Z AUTO 16006KT 10SM CLR 08/04 A3006 RMK AO2 SLP177 T00780044
KIXD 230353Z AUTO 17005KT 10SM CLR 08/04 A3009 RMK AO2 SLP188 T00780044
KIXD 230253Z 17005KT 10SM CLR 08/04 A3008 RMK AO2 SLP186 T00830044 58006
KIXD 230153Z 14007KT 10SM CLR 11/04 A3009 RMK AO2 SLP189 T01110044
KIXD 230053Z 14004KT 10SM CLR 12/04 A3010 RMK AO2 SLP194 T01220044
KIXD 222353Z VRB03KT 10SM CLR 14/04 A3010 RMK AO2 SLP190 T01440044 10183 20139 57003
KIXD 222253Z 35003KT 10SM CLR 17/05 A3010 RMK AO2 SLP190 T01670050
KIXD 222153Z 36003KT 10SM CLR 18/04 A3010 RMK AO2 SLP191 T01780044
KIXD 222053Z 01007KT 10SM CLR 18/05 A3011 RMK AO2 SLP192 T01830050 56013
KIXD 221953Z 33009KT 10SM CLR 18/04 A3011 RMK AO2 SLP194 T01780044
KIXD 221853Z 32010KT 10SM CLR 17/07 A3012 RMK AO2 SLP196 T01670067
KIXD 221753Z 30009KT 10SM CLR 16/08 A3014 RMK AO2 SLP205 T01560078 10156 20089 50008
KIXD 221653Z 31011KT 10SM CLR 14/08 A3015 RMK AO2 SLP207 T01440078
KIXD 221553Z 31011KT 10SM CLR 12/08 A3014 RMK AO2 SLP203 T01220078
KIXD 221453Z 31008KT 10SM CLR 11/08 A3012 RMK AO2 SLP198 T01110083 53013
KIXD 221353Z 30010KT 10SM CLR 09/08 A3012 RMK AO2 SLP196 T00890083
KIXD 221253Z 31007KT 10SM CLR 09/08 A3009 RMK AO2 SLP185 T00890083
KIXD 221153Z 31008KT 10SM CLR 09/08 A3008 RMK AO2 SLP181 60041 70228 T00940078 10111 20094 51040
KIXD 221053Z AUTO 31007KT 10SM FEW080 09/08 A3007 RMK AO2 SLP179 T00940083
KIXD 220953Z AUTO 30006KT 10SM OVC080 10/08 A3005 RMK AO2 RAB0858E11 SLP168 P0000 T01000083
KIXD 220853Z AUTO 04013G19KT 10SM SCT075 OVC095 10/09 A2996 RMK AO2 LTG DSNT SE RAE48 TSB02E16 SLP139 P0007 60041 T01000089 58006
KIXD 220833Z AUTO 01010KT 10SM VCTS -RA BKN075 OVC095 10/09 A2999 RMK AO2 LTG DSNT E-S TSB02E16 P0007 T01000089
KIXD 220822Z AUTO 35010KT 8SM -RA OVC070 10/09 A3002 RMK AO2 LTG DSNT NE-S TSB02E16 P0006 T01000089
KIXD 220808Z AUTO 32012KT 9SM -TSRA OVC075 10/09 A3002 RMK AO2 LTG DSNT ALQDS TSB02 P0003 T01000089
KIXD 220753Z AUTO 04014G23KT 7SM RA OVC080 10/08 A2996 RMK AO2 LTG DSNT NE-S TSB12E27 SLP141 P0015 T01000083
KIXD 220733Z AUTO 02014KT 7SM RA OVC085 11/09 A2997 RMK AO2 LTG DSNT E-SW TSB12E27 P0008 T01060094
KIXD 220718Z AUTO 36010KT 10SM -TSRA OVC090 11/10 A2998 RMK AO2 LTG DSNT E AND SW AND W TSB12 P0004 T01060100
KIXD 220653Z AUTO 35010KT 7SM VCTS RA OVC080 11/10 A2998 RMK AO2 LTG DSNT ALQDS SLP146 P0019 T01060100
KIXD 220650Z AUTO 34011KT 7SM VCTS RA OVC080 11/10 A2998 RMK AO2 LTG DSNT ALQDS P0018
KIXD 220625Z AUTO 36011KT 7SM RA FEW065 OVC080 11/10 A2998 RMK AO2 LTG DSNT NE AND SW AND W P0011 T01060100
KIXD 220610Z AUTO 01010KT 6SM VCTS RA BR SCT060 OVC080 11/11 A2997 RMK AO2 LTG DSNT ALQDS P0007 T01060106
KIXD 220553Z AUTO 34011KT 5SM RA BR FEW018 BKN055 OVC080 11/10 A3000 RMK AO2 LTG DSNT S AND SW SLP152 P0023 60187 T01110100 10228 20111 402390111 53004
KIXD 220521Z AUTO 33014KT 8SM RA FEW009 SCT020 OVC090 11/10 A2997 RMK AO2 LTG DSNT SW-N P0009 T01110100
KIXD 220507Z AUTO 33015KT 7SM VCTS RA SCT007 BKN018 OVC050 11/11 A2996 RMK AO2 LTG DSNT N AND SE AND SW P0004 T01110106
KIXD 220453Z AUTO 32011KT 7SM RA BKN008 OVC021 12/11 A2997 RMK AO2 LTG DSNT ALQDS TSE26 SLP144 P0021 T01170111
KIXD 220449Z AUTO 32012G17KT 7SM -RA BKN006 BKN011 OVC090 12/11 A2998 RMK AO2 LTG DSNT ALQDS TSE26 P0020
KIXD 220437Z AUTO 33012KT 9SM -RA FEW008 BKN025 OVC070 12/11 A2997 RMK AO2 LTG DSNT S-W TSE26 P0017 T01220111
KIXD 220432Z AUTO 34014KT 8SM -RA FEW021 BKN049 OVC090 12/11 A2997 RMK AO2 LTG DSNT E-SW TSE26 P0016 T01220111
KIXD 220353Z AUTO 35013KT 5SM TSRA BR SCT012 BKN043 OVC080 13/12 A2998 RMK AO2 LTG DSNT ALQDS TSB53 SLP148 P0014 T01280117
KIXD 220336Z AUTO 33015KT 8SM VCTS -RA FEW010 BKN080 OVC090 13/12 A2994 RMK AO2 LTG DSNT ALQDS P0007 T01280117
KIXD 220327Z AUTO 33015KT 9SM -RA FEW009 FEW070 OVC090 13/12 A2994 RMK AO2 LTG DSNT ALQDS PRESRR P0005 T01280117
KIXD 220309Z AUTO 35014KT 8SM VCTS RA SCT009 BKN065 OVC095 13/13 A2992 RMK AO2 LTG DSNT ALQDS P0002 T01330128